Decoded Metar for K0CO (BERTHOUD PASS in CO, USA) (IATA:0CO) | Meteo·Mobile Aviation Weather
aviador You're here:

K0CO Decoded Metar

BERTHOUD PASS in CO, USA
Report Time2019-06-18 15:00:00
UTC Time2019-06-18 15:04:02
Flight Rules lifr LIFR
Wind330° at 12 Gusting to 25 kt
VisibilityN/A
Phenomena:N/A
Clouds:Overcast 001 Hf
Expected CloudBase > 2,000 ft AGL from Temp-Dew spread
Ceiling100 ft
Temp00°C (ISA +12)
Dew Point-5°C (69% RH)
AAT-6.9°C
QNH1030 hPa
Density Alt14,370 ft
Elevation13,494 ft
Report Wrong Elevation
Raw Report
K0CO 181500Z AUTO 33012G25KT OVC001 00/M05 A3042 RMK AO2 PWINO=

Extra information for K0CO:More info

Metar Taf Metar & Taf Last 4 Metars F.Rules Stats Wind Profile Meteogram Temp Stats Airport Information Weather charts Add Link Nearby VenuesMetar ALERT Operation Metar Decoded Social comments

AIRNAV info for K0CO